Terminal Aerodrome Forecast
Issued by NWS

Home | Current Version | Previous Version | Graphics & Text | Print | Product List | Glossary On
Versions: 1 2 3 4 5 6 7 8 9 10 11 12 13 14 15 16 17 18 19 20
317
FTUS43 KMPX 232012 AAA
TAFRWF
TAF AMD
KRWF 232012Z 2320/2418 29005KT P6SM OVC015
     FM240300 12006KT P6SM BKN025 OVC050
     FM241200 10008KT P6SM -SN OVC008
     FM241500 10010KT 2SM -SN BR VV005=

USA.gov is the U.S. government's official web portal to all federal, state and local government web resources and services.